Time;durP1;ratioP1;P1;durP2;ratioP2;P2;SDS_P1;SDS_P2;PMS_P1;PMS_P2;Temp;Humidity;BMP_temperature;BMP_pressure;BME280_temperature;BME280_humidity;BME280_pressure;Samples;Min_cycle;Max_cycle;Signal;HPM_P1;HPM_P2
2023/10/07 00:00:28;;;;;;;24.80;18.20;;;;;;;;;;5089432;28;20072;-62
2023/10/07 00:02:55;;;;;;;24.43;17.80;;;;;;;;;;5091571;28;20514;-62
2023/10/07 00:05:28;;;;;;;23.27;17.40;;;;;;;;;;5073914;28;20028;-62
2023/10/07 00:08:00;;;;;;;23.08;17.63;;;;;;;;;;5093204;28;20023;-62
2023/10/07 00:10:26;;;;;;;25.88;18.30;;;;;;;;;;5081931;28;20080;-62
2023/10/07 00:12:52;;;;;;;25.20;18.38;;;;;;;;;;5095785;28;20020;-62
2023/10/07 00:15:21;;;;;;;23.30;17.80;;;;;;;;;;5077871;28;20024;-62
2023/10/07 00:17:49;;;;;;;24.95;18.30;;;;;;;;;;5077055;28;20039;-61
2023/10/07 00:20:20;;;;;;;22.88;17.63;;;;;;;;;;5095515;28;20023;-62
2023/10/07 00:22:49;;;;;;;23.40;17.80;;;;;;;;;;5095268;28;20633;-62
2023/10/07 00:25:19;;;;;;;24.27;17.20;;;;;;;;;;5088841;28;20863;-62
2023/10/07 00:27:44;;;;;;;26.08;18.23;;;;;;;;;;5088055;28;21265;-61
2023/10/07 00:30:15;;;;;;;23.02;18.48;;;;;;;;;;5096593;28;20549;-61
2023/10/07 00:32:45;;;;;;;26.10;17.92;;;;;;;;;;5078400;28;20100;-60
2023/10/07 00:35:11;;;;;;;;;;;;;;;;;;5088553;28;20066;-61
2023/10/07 00:37:43;;;;;;;25.35;17.50;;;;;;;;;;5091839;28;19908;-62
2023/10/07 00:40:24;;;;;;;24.92;17.02;;;;;;;;;;5075641;28;20016;-60
2023/10/07 00:42:50;;;;;;;22.73;17.27;;;;;;;;;;5068795;28;20558;-61
2023/10/07 00:45:19;;;;;;;23.13;17.65;;;;;;;;;;5093705;27;20023;-61
2023/10/07 00:47:46;;;;;;;;;;;;;;;;;;5095344;27;20016;-61
2023/10/07 00:50:15;;;;;;;25.98;16.77;;;;;;;;;;5080786;28;19927;-61
2023/10/07 00:52:45;;;;;;;23.85;16.13;;;;;;;;;;5067315;28;20012;-61
2023/10/07 00:55:18;;;;;;;23.33;16.45;;;;;;;;;;5054795;28;20028;-61
2023/10/07 00:57:54;;;;;;;22.52;17.30;;;;;;;;;;5076678;28;20048;-61
2023/10/07 01:02:46;;;;;;;21.50;16.75;;;;;;;;;;5068812;28;20024;-61
2023/10/07 01:05:22;;;;;;;23.50;17.92;;;;;;;;;;5068747;28;20027;-61
2023/10/07 01:07:53;;;;;;;22.70;16.35;;;;;;;;;;5070942;28;20008;-61
2023/10/07 01:10:25;;;;;;;23.35;17.02;;;;;;;;;;5076741;28;21355;-61
2023/10/07 01:12:51;;;;;;;23.33;16.92;;;;;;;;;;5068432;28;20286;-61
2023/10/07 01:17:46;;;;;;;22.38;16.02;;;;;;;;;;5065941;28;20085;-61
2023/10/07 01:20:16;;;;;;;25.65;18.15;;;;;;;;;;5068340;28;20376;-61
2023/10/07 01:23:02;;;;;;;23.75;17.42;;;;;;;;;;5045003;28;20113;-61
2023/10/07 01:25:29;;;;;;;23.23;17.60;;;;;;;;;;5066922;28;20038;-61
2023/10/07 01:27:54;;;;;;;23.23;17.05;;;;;;;;;;5069485;28;20037;-62
2023/10/07 01:30:26;;;;;;;21.83;17.63;;;;;;;;;;5068468;28;20524;-61
2023/10/07 01:33:02;;;;;;;21.05;16.77;;;;;;;;;;5073253;28;20016;-61
2023/10/07 01:35:32;;;;;;;22.65;17.30;;;;;;;;;;5074096;28;20024;-61
2023/10/07 01:38:07;;;;;;;22.25;17.23;;;;;;;;;;5066576;28;20153;-61
2023/10/07 01:40:41;;;;;;;23.08;16.02;;;;;;;;;;5065950;28;20032;-62
2023/10/07 01:43:07;;;;;;;24.40;17.52;;;;;;;;;;5064279;28;20032;-62
2023/10/07 01:45:39;;;;;;;24.83;17.20;;;;;;;;;;5077636;28;20635;-61
2023/10/07 01:48:07;;;;;;;24.27;17.10;;;;;;;;;;5080554;28;20008;-61
2023/10/07 01:50:43;;;;;;;23.23;17.50;;;;;;;;;;5081095;28;20054;-61
2023/10/07 01:53:09;;;;;;;22.80;17.15;;;;;;;;;;5075021;28;20012;-61
2023/10/07 01:55:43;;;;;;;23.02;17.35;;;;;;;;;;5072118;28;20028;-58
2023/10/07 01:58:15;;;;;;;25.10;17.73;;;;;;;;;;5057188;28;20020;-61
2023/10/07 02:00:45;;;;;;;23.80;17.88;;;;;;;;;;5050193;28;20040;-61
2023/10/07 02:03:13;;;;;;;;;;;;;;;;;;5056439;28;20023;-61
2023/10/07 02:05:41;;;;;;;21.55;16.27;;;;;;;;;;5063346;28;20019;-61
2023/10/07 02:08:13;;;;;;;23.75;17.38;;;;;;;;;;5072421;28;20047;-62
2023/10/07 02:10:41;;;;;;;25.23;16.40;;;;;;;;;;5077106;28;20012;-61
2023/10/07 02:13:08;;;;;;;23.65;17.13;;;;;;;;;;5069423;28;20099;-61
2023/10/07 02:15:36;;;;;;;23.30;17.30;;;;;;;;;;5058060;28;20020;-60
2023/10/07 02:18:04;;;;;;;27.30;16.60;;;;;;;;;;5068350;28;20108;-62
2023/10/07 02:20:38;;;;;;;22.05;17.23;;;;;;;;;;5071189;28;20047;-62
2023/10/07 02:23:11;;;;;;;21.60;16.67;;;;;;;;;;5079696;28;20077;-61
2023/10/07 02:25:38;;;;;;;23.08;17.33;;;;;;;;;;5065879;28;20028;-61
2023/10/07 02:28:05;;;;;;;21.55;15.80;;;;;;;;;;5059930;28;20004;-61
2023/10/07 02:30:34;;;;;;;23.05;16.50;;;;;;;;;;5079561;28;20107;-61
2023/10/07 02:33:01;;;;;;;22.55;17.27;;;;;;;;;;5076092;28;20015;-61
2023/10/07 02:35:30;;;;;;;23.92;17.20;;;;;;;;;;5049159;28;20020;-62
2023/10/07 02:38:03;;;;;;;24.35;17.48;;;;;;;;;;5074902;28;20052;-62
2023/10/07 02:40:48;;;;;;;23.05;15.93;;;;;;;;;;5062324;28;20024;-61
2023/10/07 02:43:15;;;;;;;21.00;16.58;;;;;;;;;;5078699;28;20016;-61
2023/10/07 02:45:42;;;;;;;23.33;17.25;;;;;;;;;;5065292;28;20158;-62
2023/10/07 02:48:10;;;;;;;22.15;16.80;;;;;;;;;;5081523;28;20048;-61
2023/10/07 02:50:42;;;;;;;22.80;17.98;;;;;;;;;;5068714;28;20150;-62
2023/10/07 02:53:16;;;;;;;24.48;17.58;;;;;;;;;;5074730;28;20016;-61
2023/10/07 02:55:54;;;;;;;23.33;16.65;;;;;;;;;;5073886;28;20121;-62
2023/10/07 02:58:59;;;;;;;22.42;16.23;;;;;;;;;;5074220;28;20024;-61
2023/10/07 03:01:26;;;;;;;23.15;17.02;;;;;;;;;;5071332;28;20591;-61
2023/10/07 03:03:51;;;;;;;21.75;17.08;;;;;;;;;;5073227;28;20116;-62
2023/10/07 03:06:25;;;;;;;25.40;18.05;;;;;;;;;;5054151;28;20036;-61
2023/10/07 03:08:59;;;;;;;23.50;17.30;;;;;;;;;;5052224;28;20089;-62
2023/10/07 03:11:40;;;;;;;25.02;17.75;;;;;;;;;;5070487;28;20043;-61
2023/10/07 03:14:05;;;;;;;26.35;18.90;;;;;;;;;;5068101;28;20013;-63
2023/10/07 03:16:43;;;;;;;23.42;17.40;;;;;;;;;;5080215;28;20085;-61
2023/10/07 03:19:20;;;;;;;24.15;17.63;;;;;;;;;;5073696;28;20547;-62
2023/10/07 03:21:55;;;;;;;24.17;17.73;;;;;;;;;;5083108;28;20484;-62
2023/10/07 03:24:29;;;;;;;22.38;17.33;;;;;;;;;;5064620;28;20157;-61
2023/10/07 03:27:05;;;;;;;26.67;17.92;;;;;;;;;;5071554;28;20024;-61
2023/10/07 03:29:31;;;;;;;22.92;17.60;;;;;;;;;;5057097;28;20052;-62
2023/10/07 03:32:00;;;;;;;23.00;18.05;;;;;;;;;;5067503;28;20024;-61
2023/10/07 03:34:25;;;;;;;25.30;18.20;;;;;;;;;;5056158;28;20021;-61
2023/10/07 03:42:18;;;;;;;23.38;17.30;;;;;;;;;;5069150;28;20034;-61
2023/10/07 03:44:46;;;;;;;23.25;17.45;;;;;;;;;;5066667;28;20028;-62
2023/10/07 03:47:11;;;;;;;23.05;17.55;;;;;;;;;;5066278;28;20012;-61
2023/10/07 03:49:40;;;;;;;23.45;17.00;;;;;;;;;;5069306;28;20627;-61
2023/10/07 03:52:12;;;;;;;23.13;17.52;;;;;;;;;;5075385;28;20023;-62
2023/10/07 03:54:41;;;;;;;23.67;17.13;;;;;;;;;;5055936;28;20028;-62
2023/10/07 03:57:07;;;;;;;22.92;16.73;;;;;;;;;;5063265;28;20035;-62
2023/10/07 03:59:34;;;;;;;24.15;17.33;;;;;;;;;;5072907;28;20023;-62
2023/10/07 04:02:00;;;;;;;25.05;17.58;;;;;;;;;;5049660;28;20022;-62
2023/10/07 04:04:28;;;;;;;22.75;17.10;;;;;;;;;;5073266;28;20016;-62
2023/10/07 04:06:53;;;;;;;26.05;17.10;;;;;;;;;;5049745;28;20012;-62
2023/10/07 04:09:32;;;;;;;23.13;17.10;;;;;;;;;;5069309;28;20039;-61
2023/10/07 04:11:58;;;;;;;23.58;16.40;;;;;;;;;;5070208;28;20332;-62
2023/10/07 04:14:30;;;;;;;22.88;16.58;;;;;;;;;;5057279;28;20075;-62
2023/10/07 04:17:00;;;;;;;21.90;15.82;;;;;;;;;;5067168;28;20279;-62
2023/10/07 04:21:51;;;;;;;25.00;17.55;;;;;;;;;;5077562;28;20020;-62
2023/10/07 04:24:16;;;;;;;22.20;16.73;;;;;;;;;;5072089;28;20510;-62
2023/10/07 04:26:54;;;;;;;24.58;17.02;;;;;;;;;;5052569;28;20032;-62
2023/10/07 04:29:21;;;;;;;23.95;16.27;;;;;;;;;;5070623;28;20065;-62
2023/10/07 04:31:47;;;;;;;23.85;17.20;;;;;;;;;;5056727;28;20699;-60
2023/10/07 04:34:15;;;;;;;21.75;16.23;;;;;;;;;;5078641;28;20023;-62
2023/10/07 04:42:20;;;;;;;25.35;17.45;;;;;;;;;;5074089;28;20058;-62
2023/10/07 04:47:29;;;;;;;24.15;16.52;;;;;;;;;;5070081;28;20035;-62
2023/10/07 04:50:20;;;;;;;21.85;16.48;;;;;;;;;;5073294;28;20104;-62
2023/10/07 04:52:50;;;;;;;24.03;17.13;;;;;;;;;;5069820;28;20041;-62
2023/10/07 04:55:19;;;;;;;21.88;17.17;;;;;;;;;;5077148;28;20272;-62
2023/10/07 05:02:57;;;;;;;22.33;17.15;;;;;;;;;;5061990;28;20074;-62
2023/10/07 05:05:24;;;;;;;25.27;18.27;;;;;;;;;;5073621;28;20069;-62
2023/10/07 05:07:50;;;;;;;26.15;18.08;;;;;;;;;;5059930;28;20093;-61
2023/10/07 05:10:20;;;;;;;23.00;17.60;;;;;;;;;;5074918;28;20016;-62
2023/10/07 05:12:46;;;;;;;25.02;17.77;;;;;;;;;;5071203;28;20046;-62
2023/10/07 05:15:11;;;;;;;24.23;17.15;;;;;;;;;;5058366;28;20699;-61
2023/10/07 05:17:36;;;;;;;25.55;17.25;;;;;;;;;;5075411;28;20047;-62
2023/10/07 05:20:26;;;;;;;24.85;17.45;;;;;;;;;;5072332;28;20392;-62
2023/10/07 05:22:48;;;;;;;23.02;17.23;;;;;;;;;;5072079;28;20141;-62
2023/10/07 05:25:13;;;;;;;24.60;17.40;;;;;;;;;;5074016;28;20120;-61
2023/10/07 05:27:40;;;;;;;24.23;17.80;;;;;;;;;;5053611;28;20134;-62
2023/10/07 05:30:07;;;;;;;24.60;17.55;;;;;;;;;;5073979;28;20016;-62
2023/10/07 05:32:35;;;;;;;22.88;16.92;;;;;;;;;;5064256;28;20021;-62
2023/10/07 05:35:01;;;;;;;26.63;17.17;;;;;;;;;;5058101;28;20115;-63
2023/10/07 05:37:28;;;;;;;24.10;17.20;;;;;;;;;;5052533;28;20021;-65
2023/10/07 05:39:55;;;;;;;21.30;16.48;;;;;;;;;;5074095;28;20042;-62
2023/10/07 05:42:21;;;;;;;24.83;17.10;;;;;;;;;;5054825;28;20032;-60
2023/10/07 05:44:46;;;;;;;23.10;17.05;;;;;;;;;;5049679;28;20614;-62
2023/10/07 05:47:12;;;;;;;25.88;17.10;;;;;;;;;;5056483;28;20089;-62
2023/10/07 05:49:37;;;;;;;25.40;17.08;;;;;;;;;;5071279;28;20056;-62
2023/10/07 05:52:04;;;;;;;21.92;16.50;;;;;;;;;;5071818;28;20476;-62
2023/10/07 05:54:31;;;;;;;24.50;17.02;;;;;;;;;;5078222;28;20024;-62
2023/10/07 05:56:58;;;;;;;22.60;16.75;;;;;;;;;;5066394;28;20022;-62
2023/10/07 05:59:23;;;;;;;21.80;15.93;;;;;;;;;;5067193;28;20156;-62
2023/10/07 06:01:49;;;;;;;22.33;16.58;;;;;;;;;;5070429;28;20577;-62
2023/10/07 06:04:17;;;;;;;21.90;15.68;;;;;;;;;;5055370;28;20045;-61
2023/10/07 06:06:42;;;;;;;25.30;16.40;;;;;;;;;;5066099;28;20028;-61
2023/10/07 06:09:10;;;;;;;19.75;15.27;;;;;;;;;;5051604;28;20035;-63
2023/10/07 06:11:35;;;;;;;20.23;15.63;;;;;;;;;;5074089;28;20849;-61
2023/10/07 06:14:04;;;;;;;20.35;15.32;;;;;;;;;;5066685;28;20031;-64
2023/10/07 06:16:32;;;;;;;22.88;15.90;;;;;;;;;;5056053;28;20020;-61
2023/10/07 06:18:58;;;;;;;21.60;16.10;;;;;;;;;;5057231;28;20107;-62
2023/10/07 06:21:32;;;;;;;22.25;15.35;;;;;;;;;;5071796;28;20538;-62
2023/10/07 06:23:58;;;;;;;20.17;14.60;;;;;;;;;;5055555;28;20024;-61
2023/10/07 06:26:24;;;;;;;22.52;15.70;;;;;;;;;;5055875;28;20082;-61
2023/10/07 06:28:52;;;;;;;21.85;15.18;;;;;;;;;;5078998;28;20016;-61
2023/10/07 06:31:28;;;;;;;23.77;16.40;;;;;;;;;;5063258;28;20015;-62
2023/10/07 06:34:12;;;;;;;22.45;15.82;;;;;;;;;;5073028;28;20089;-62
2023/10/07 06:36:40;;;;;;;20.00;15.07;;;;;;;;;;5074688;28;20058;-62
2023/10/07 06:39:07;;;;;;;21.63;15.52;;;;;;;;;;5070615;28;20063;-62
2023/10/07 06:41:35;;;;;;;20.33;15.18;;;;;;;;;;5074307;28;20065;-61
2023/10/07 06:44:04;;;;;;;20.90;14.82;;;;;;;;;;5073145;28;20121;-64
2023/10/07 06:46:34;;;;;;;20.55;14.82;;;;;;;;;;5066156;28;20482;-60
2023/10/07 06:49:03;;;;;;;21.80;15.45;;;;;;;;;;5062752;28;20753;-62
2023/10/07 06:51:29;;;;;;;18.17;13.85;;;;;;;;;;5056155;28;20086;-62
2023/10/07 06:53:58;;;;;;;22.58;15.23;;;;;;;;;;5056392;28;20020;-62
2023/10/07 06:56:24;;;;;;;23.60;15.82;;;;;;;;;;5074007;28;20012;-62
2023/10/07 06:58:53;;;;;;;21.52;13.80;;;;;;;;;;5073096;28;20116;-62
2023/10/07 07:04:13;;;;;;;20.33;14.27;;;;;;;;;;5070005;28;20075;-62
2023/10/07 07:06:43;;;;;;;20.02;13.50;;;;;;;;;;5076403;28;20031;-61
2023/10/07 07:11:58;;;;;;;20.20;14.32;;;;;;;;;;5068005;28;20062;-62
2023/10/07 07:14:28;;;;;;;19.50;13.90;;;;;;;;;;5074348;28;20110;-62
2023/10/07 07:17:29;;;;;;;18.83;14.00;;;;;;;;;;5057520;28;20139;-62
2023/10/07 07:20:15;;;;;;;19.30;14.20;;;;;;;;;;5075271;28;20107;-61
2023/10/07 07:22:33;;;;;;;19.58;13.90;;;;;;;;;;5077677;28;20027;-62
2023/10/07 07:25:04;;;;;;;19.65;14.90;;;;;;;;;;5076345;28;20028;-62
2023/10/07 07:27:34;;;;;;;17.58;13.20;;;;;;;;;;5073887;28;20145;-61
2023/10/07 07:30:08;;;;;;;22.63;15.50;;;;;;;;;;5074084;28;20454;-62
2023/10/07 07:32:35;;;;;;;20.15;14.38;;;;;;;;;;5073154;28;20031;-62
2023/10/07 07:35:03;;;;;;;20.88;16.48;;;;;;;;;;5069496;28;20032;-62
2023/10/07 07:37:34;;;;;;;20.73;14.35;;;;;;;;;;5077172;28;20024;-61
2023/10/07 07:40:08;;;;;;;18.48;13.35;;;;;;;;;;5075406;28;20024;-62
2023/10/07 07:42:34;;;;;;;20.70;13.45;;;;;;;;;;5075970;28;20039;-61
2023/10/07 07:44:59;;;;;;;20.45;14.20;;;;;;;;;;5076726;28;20491;-62
2023/10/07 07:47:30;;;;;;;20.17;15.27;;;;;;;;;;5059356;28;20028;-62
2023/10/07 07:49:56;;;;;;;24.10;17.02;;;;;;;;;;5074758;28;20047;-61
2023/10/07 07:52:23;;;;;;;25.75;18.95;;;;;;;;;;5065850;28;20017;-62
2023/10/07 07:54:48;;;;;;;19.23;13.85;;;;;;;;;;5071945;28;20023;-62
2023/10/07 07:57:16;;;;;;;19.20;13.90;;;;;;;;;;5060070;28;20589;-62
2023/10/07 07:59:43;;;;;;;18.25;12.98;;;;;;;;;;5074655;28;20020;-61
2023/10/07 08:02:12;;;;;;;18.77;13.38;;;;;;;;;;5056382;28;20023;-62
2023/10/07 08:04:39;;;;;;;17.90;13.10;;;;;;;;;;5067272;28;20508;-61
2023/10/07 08:07:18;;;;;;;19.85;13.15;;;;;;;;;;5075981;28;20016;-61
2023/10/07 08:09:50;;;;;;;20.02;13.18;;;;;;;;;;5058533;28;20103;-62
2023/10/07 08:12:19;;;;;;;18.02;12.63;;;;;;;;;;5071457;28;20016;-60
2023/10/07 08:14:47;;;;;;;17.02;12.82;;;;;;;;;;5066809;28;20602;-60
2023/10/07 08:17:19;;;;;;;18.90;12.93;;;;;;;;;;5073733;28;20099;-61
2023/10/07 08:19:44;;;;;;;19.25;14.10;;;;;;;;;;5074473;28;20099;-61
2023/10/07 08:22:18;;;;;;;18.35;13.68;;;;;;;;;;5073102;28;20723;-62
2023/10/07 08:24:44;;;;;;;17.02;12.57;;;;;;;;;;5050489;28;20029;-62
2023/10/07 08:27:43;;;;;;;17.90;12.95;;;;;;;;;;5073967;28;20035;-61
2023/10/07 08:29:55;;;;;;;18.80;12.90;;;;;;;;;;5068929;28;20117;-61
2023/10/07 08:32:35;;;;;;;18.60;12.40;;;;;;;;;;5076117;28;20013;-62
2023/10/07 08:35:00;;;;;;;18.95;12.70;;;;;;;;;;5069671;28;20020;-62
2023/10/07 08:37:32;;;;;;;17.65;12.70;;;;;;;;;;5054275;28;20085;-62
2023/10/07 08:40:10;;;;;;;16.73;13.18;;;;;;;;;;5066141;28;20399;-62
2023/10/07 08:42:36;;;;;;;18.08;13.48;;;;;;;;;;5060860;28;20808;-62
2023/10/07 08:45:01;;;;;;;18.30;13.18;;;;;;;;;;5071426;28;20146;-62
2023/10/07 08:47:39;;;;;;;20.27;13.40;;;;;;;;;;5060015;28;20107;-61
2023/10/07 08:50:06;;;;;;;18.35;13.02;;;;;;;;;;5069415;28;20040;-62
2023/10/07 08:52:32;;;;;;;18.92;12.95;;;;;;;;;;5075113;28;20009;-62
2023/10/07 08:54:59;;;;;;;19.10;13.13;;;;;;;;;;5062575;28;20493;-62
2023/10/07 08:57:27;;;;;;;19.30;13.13;;;;;;;;;;5057697;28;20028;-62
2023/10/07 08:59:52;;;;;;;17.27;12.68;;;;;;;;;;5071902;28;20058;-62
2023/10/07 09:02:26;;;;;;;17.38;12.70;;;;;;;;;;5054382;28;20024;-62
2023/10/07 09:04:55;;;;;;;18.13;12.30;;;;;;;;;;5063929;28;20028;-63
2023/10/07 09:07:30;;;;;;;17.98;13.25;;;;;;;;;;5074014;28;20709;-62
2023/10/07 09:10:06;;;;;;;17.27;11.82;;;;;;;;;;5068570;28;20015;-62
2023/10/07 09:12:36;;;;;;;16.65;12.25;;;;;;;;;;5068281;28;20016;-61
2023/10/07 09:15:12;;;;;;;20.92;12.40;;;;;;;;;;5071627;28;20093;-62
2023/10/07 09:17:41;;;;;;;20.10;11.38;;;;;;;;;;5066605;28;20761;-62
2023/10/07 09:20:17;;;;;;;14.70;12.20;;;;;;;;;;5053470;28;20360;-62
2023/10/07 09:22:47;;;;;;;17.77;12.27;;;;;;;;;;5054267;28;22099;-62
2023/10/07 09:25:19;;;;;;;15.60;11.40;;;;;;;;;;5069044;28;20032;-61
2023/10/07 09:27:54;;;;;;;16.40;11.90;;;;;;;;;;5048730;28;20103;-61
2023/10/07 09:30:38;;;;;;;16.35;11.32;;;;;;;;;;5075676;28;20031;-62
2023/10/07 09:33:06;;;;;;;14.77;10.90;;;;;;;;;;5068224;28;20492;-62
2023/10/07 09:35:32;;;;;;;15.27;11.63;;;;;;;;;;5074078;28;20107;-62
2023/10/07 09:38:08;;;;;;;14.80;11.02;;;;;;;;;;5068466;28;20057;-63
2023/10/07 09:43:19;;;;;;;15.60;11.88;;;;;;;;;;5072960;28;20785;-62
2023/10/07 09:45:52;;;;;;;16.05;11.63;;;;;;;;;;5072500;28;20032;-62
2023/10/07 09:48:23;;;;;;;14.48;11.18;;;;;;;;;;5050278;28;20024;-62
2023/10/07 09:50:50;;;;;;;13.30;10.00;;;;;;;;;;5078340;28;20089;-61
2023/10/07 09:53:30;;;;;;;15.60;10.75;;;;;;;;;;5072705;28;20697;-61
2023/10/07 09:56:21;;;;;;;15.70;10.93;;;;;;;;;;5071377;28;20028;-62
2023/10/07 09:58:47;;;;;;;17.55;11.15;;;;;;;;;;5072189;28;20024;-62
2023/10/07 10:01:37;;;;;;;14.93;10.25;;;;;;;;;;5072251;28;20118;-62
2023/10/07 10:04:11;;;;;;;14.82;10.98;;;;;;;;;;5048529;28;20028;-62
2023/10/07 10:06:55;;;;;;;12.80;9.45;;;;;;;;;;5062081;28;20569;-61
2023/10/07 10:09:27;;;;;;;13.60;9.82;;;;;;;;;;5051881;28;20035;-62
2023/10/07 10:12:18;;;;;;;13.95;9.93;;;;;;;;;;5067250;28;20024;-61
2023/10/07 10:14:56;;;;;;;13.20;9.10;;;;;;;;;;5072783;28;20372;-62
2023/10/07 10:17:39;;;;;;;11.75;8.80;;;;;;;;;;5054470;28;20030;-61
2023/10/07 10:20:12;;;;;;;12.70;9.13;;;;;;;;;;5053498;28;20028;-63
2023/10/07 10:22:48;;;;;;;13.60;8.82;;;;;;;;;;5060698;28;20105;-61
2023/10/07 10:25:16;;;;;;;13.07;9.15;;;;;;;;;;5070431;28;20028;-61
2023/10/07 10:27:44;;;;;;;12.70;9.50;;;;;;;;;;5056803;28;20473;-61
2023/10/07 10:30:21;;;;;;;12.25;8.90;;;;;;;;;;5075934;28;20403;-61
2023/10/07 10:32:49;;;;;;;12.20;8.95;;;;;;;;;;5072678;28;20073;-61
2023/10/07 10:35:23;;;;;;;12.63;8.75;;;;;;;;;;5051152;28;20021;-62
2023/10/07 10:37:57;;;;;;;11.95;8.48;;;;;;;;;;5061919;28;20035;-62
2023/10/07 10:40:23;;;;;;;12.32;8.27;;;;;;;;;;5072376;28;20028;-63
2023/10/07 10:42:49;;;;;;;11.25;8.50;;;;;;;;;;5059211;28;20024;-62
2023/10/07 10:45:19;;;;;;;11.90;9.02;;;;;;;;;;5075874;28;20705;-62
2023/10/07 10:47:52;;;;;;;12.10;7.78;;;;;;;;;;5071662;28;20054;-62
2023/10/07 10:50:19;;;;;;;11.90;8.48;;;;;;;;;;5089574;27;20044;-62
2023/10/07 10:52:48;;;;;;;11.98;8.63;;;;;;;;;;5088899;27;20042;-62
2023/10/07 10:55:14;;;;;;;12.93;8.50;;;;;;;;;;5071382;28;20024;-62
2023/10/07 10:57:41;;;;;;;11.07;7.72;;;;;;;;;;5087101;28;20023;-61
2023/10/07 11:00:19;;;;;;;12.45;7.75;;;;;;;;;;5063698;28;20027;-62
2023/10/07 11:02:45;;;;;;;11.98;7.80;;;;;;;;;;5084767;27;20058;-62
2023/10/07 11:05:12;;;;;;;11.05;7.75;;;;;;;;;;5086426;27;20518;-62
2023/10/07 11:07:39;;;;;;;13.68;9.40;;;;;;;;;;5085382;27;20125;-61
2023/10/07 11:10:05;;;;;;;15.35;9.65;;;;;;;;;;5066997;28;20027;-61
2023/10/07 11:12:33;;;;;;;13.45;9.07;;;;;;;;;;5088714;28;20572;-61
2023/10/07 11:15:13;;;;;;;16.05;9.40;;;;;;;;;;5085396;27;20026;-62
2023/10/07 11:17:51;;;;;;;12.52;9.15;;;;;;;;;;5092038;27;20019;-62
2023/10/07 11:20:19;;;;;;;12.05;8.65;;;;;;;;;;5089906;27;20470;-61
2023/10/07 11:22:44;;;;;;;14.75;10.02;;;;;;;;;;5088004;28;20031;-63
2023/10/07 11:25:14;;;;;;;13.98;9.10;;;;;;;;;;5076119;28;20726;-62
2023/10/07 11:27:42;;;;;;;11.77;9.18;;;;;;;;;;5069039;28;20042;-62
2023/10/07 11:30:11;;;;;;;10.73;8.00;;;;;;;;;;5093444;28;20016;-61
2023/10/07 11:32:40;;;;;;;12.00;8.43;;;;;;;;;;5085647;27;20023;-61
2023/10/07 11:35:15;;;;;;;10.73;7.63;;;;;;;;;;5073579;28;20471;-63
2023/10/07 11:37:46;;;;;;;10.93;7.20;;;;;;;;;;5095434;27;20040;-61
2023/10/07 11:40:11;;;;;;;11.10;7.40;;;;;;;;;;5085870;27;20506;-63
2023/10/07 11:42:37;;;;;;;12.97;8.77;;;;;;;;;;5082355;27;20020;-63
2023/10/07 11:45:04;;;;;;;11.77;8.23;;;;;;;;;;5088327;28;20250;-62
2023/10/07 11:47:30;;;;;;;12.90;8.15;;;;;;;;;;5077624;28;20030;-63
2023/10/07 11:49:55;;;;;;;10.93;8.07;;;;;;;;;;5096967;27;20051;-63
2023/10/07 11:52:20;;;;;;;9.80;7.28;;;;;;;;;;5091621;27;20099;-63
2023/10/07 11:54:46;;;;;;;10.10;6.80;;;;;;;;;;5114479;27;20055;-63
2023/10/07 11:57:13;;;;;;;10.90;7.55;;;;;;;;;;5092041;27;20039;-63
2023/10/07 11:59:41;;;;;;;12.27;8.45;;;;;;;;;;5081772;28;20470;-67
2023/10/07 12:02:10;;;;;;;9.77;7.05;;;;;;;;;;5090981;27;21226;-67
2023/10/07 12:04:38;;;;;;;10.43;7.37;;;;;;;;;;5071703;28;20047;-66
2023/10/07 12:07:06;;;;;;;13.10;7.97;;;;;;;;;;5068951;28;20108;-66
2023/10/07 12:09:31;;;;;;;9.90;7.53;;;;;;;;;;5082493;27;20697;-67
2023/10/07 12:11:58;;;;;;;10.32;7.63;;;;;;;;;;5084949;27;20040;-68
2023/10/07 12:14:27;;;;;;;12.75;8.10;;;;;;;;;;5063736;27;20019;-67
2023/10/07 12:16:52;;;;;;;9.60;7.30;;;;;;;;;;5106449;27;20035;-67
2023/10/07 12:19:18;;;;;;;10.63;7.95;;;;;;;;;;5069825;28;20080;-67
2023/10/07 12:21:49;;;;;;;10.73;7.65;;;;;;;;;;5077233;28;20027;-67
2023/10/07 12:24:20;;;;;;;11.60;8.00;;;;;;;;;;5070756;27;20751;-67
2023/10/07 12:26:50;;;;;;;11.80;8.80;;;;;;;;;;5087109;27;20093;-67
2023/10/07 12:29:17;;;;;;;11.27;8.13;;;;;;;;;;5071203;28;20000;-66
2023/10/07 12:31:45;;;;;;;11.35;8.38;;;;;;;;;;5076910;27;20081;-67
2023/10/07 12:34:15;;;;;;;13.02;9.07;;;;;;;;;;5095026;27;20482;-66
2023/10/07 12:36:40;;;;;;;16.23;9.23;;;;;;;;;;5079245;28;20024;-66
2023/10/07 12:39:14;;;;;;;13.60;8.82;;;;;;;;;;5071940;28;20667;-67
2023/10/07 12:41:45;;;;;;;12.73;9.15;;;;;;;;;;5079433;28;20031;-67
2023/10/07 12:44:12;;;;;;;12.40;8.85;;;;;;;;;;5075715;27;20543;-67
2023/10/07 12:46:39;;;;;;;11.45;8.90;;;;;;;;;;5072457;28;20156;-67
2023/10/07 12:49:08;;;;;;;11.32;8.75;;;;;;;;;;5083196;27;20768;-66
2023/10/07 12:51:34;;;;;;;12.88;8.80;;;;;;;;;;5054935;28;20066;-67
2023/10/07 12:54:03;;;;;;;12.43;9.27;;;;;;;;;;5074993;28;20129;-67
2023/10/07 12:56:31;;;;;;;12.85;9.32;;;;;;;;;;5051157;28;20289;-67
2023/10/07 12:59:01;;;;;;;12.38;8.82;;;;;;;;;;5050978;28;20027;-67
2023/10/07 13:01:31;;;;;;;11.88;9.18;;;;;;;;;;5053338;28;20024;-67
2023/10/07 13:03:57;;;;;;;14.05;9.13;;;;;;;;;;5046436;28;20028;-67
2023/10/07 13:06:23;;;;;;;12.30;9.25;;;;;;;;;;5071724;28;20016;-67
2023/10/07 13:08:49;;;;;;;17.13;8.77;;;;;;;;;;5069933;28;20008;-66
2023/10/07 13:11:14;;;;;;;12.65;9.27;;;;;;;;;;5073219;28;20023;-66
2023/10/07 13:13:45;;;;;;;12.38;9.07;;;;;;;;;;5074008;28;20046;-65
2023/10/07 13:16:11;;;;;;;12.05;9.10;;;;;;;;;;5068436;28;20056;-66
2023/10/07 13:18:40;;;;;;;11.15;9.07;;;;;;;;;;5072022;28;20115;-68
2023/10/07 13:21:13;;;;;;;11.38;9.38;;;;;;;;;;5048818;28;20471;-67
2023/10/07 13:23:40;;;;;;;12.55;9.10;;;;;;;;;;5071505;28;20469;-65
2023/10/07 13:26:10;;;;;;;11.90;8.65;;;;;;;;;;5062685;28;20024;-65
2023/10/07 13:28:38;;;;;;;;;;;;;;;;;;5068944;28;20862;-65
2023/10/07 13:31:07;;;;;;;13.32;9.02;;;;;;;;;;5046288;28;19908;-65
2023/10/07 13:33:32;;;;;;;13.10;9.25;;;;;;;;;;5062696;28;20115;-64
2023/10/07 13:35:57;;;;;;;12.77;9.15;;;;;;;;;;5061964;28;20811;-65
2023/10/07 13:38:22;;;;;;;13.90;9.20;;;;;;;;;;5066689;28;20024;-65
2023/10/07 13:40:50;;;;;;;12.43;9.20;;;;;;;;;;5047243;28;20020;-65
2023/10/07 13:43:18;;;;;;;12.52;9.38;;;;;;;;;;5056083;28;20894;-65
2023/10/07 13:45:43;;;;;;;12.32;9.45;;;;;;;;;;5051437;28;20767;-64
2023/10/07 13:48:10;;;;;;;11.63;8.63;;;;;;;;;;5050391;28;20027;-65
2023/10/07 13:50:39;;;;;;;12.68;9.38;;;;;;;;;;5069125;28;20278;-65
2023/10/07 13:58:10;;;;;;;12.20;9.30;;;;;;;;;;5068486;28;20020;-65
2023/10/07 14:00:37;;;;;;;13.70;9.55;;;;;;;;;;5065770;28;20020;-66
2023/10/07 14:03:08;;;;;;;12.00;9.35;;;;;;;;;;5044176;28;20013;-65
2023/10/07 14:05:41;;;;;;;12.85;9.93;;;;;;;;;;5075627;28;20032;-65
2023/10/07 14:08:15;;;;;;;13.82;9.65;;;;;;;;;;5056658;28;20028;-65
2023/10/07 14:10:41;;;;;;;13.65;9.45;;;;;;;;;;5052616;28;21205;-65
2023/10/07 14:13:08;;;;;;;13.90;9.55;;;;;;;;;;5057582;28;20021;-65
2023/10/07 14:15:35;;;;;;;11.85;9.52;;;;;;;;;;5069354;28;20835;-65
2023/10/07 14:18:01;;;;;;;11.88;9.63;;;;;;;;;;5071621;28;21120;-65
2023/10/07 14:20:29;;;;;;;13.05;9.88;;;;;;;;;;5072194;28;20027;-65
2023/10/07 14:22:59;;;;;;;13.35;9.38;;;;;;;;;;5057253;28;20057;-66
2023/10/07 14:25:27;;;;;;;;;;;;;;;;;;5055446;28;20044;-66
2023/10/07 14:27:55;;;;;;;11.88;9.27;;;;;;;;;;5074658;28;20002;-67
2023/10/07 14:30:22;;;;;;;14.18;10.20;;;;;;;;;;5074014;28;20024;-65
2023/10/07 14:32:48;;;;;;;14.60;9.82;;;;;;;;;;5076562;28;20042;-65
2023/10/07 14:35:14;;;;;;;11.65;9.05;;;;;;;;;;5055730;28;20049;-65
2023/10/07 14:37:42;;;;;;;12.03;8.90;;;;;;;;;;5059960;28;20139;-66
2023/10/07 14:40:10;;;;;;;11.93;9.73;;;;;;;;;;5069826;28;20267;-65
2023/10/07 14:42:35;;;;;;;11.60;9.40;;;;;;;;;;5050866;28;21072;-65
2023/10/07 14:45:03;;;;;;;13.18;9.60;;;;;;;;;;5079973;28;20501;-65
2023/10/07 14:47:28;;;;;;;13.45;10.02;;;;;;;;;;5077044;28;20032;-65
2023/10/07 14:49:54;;;;;;;12.17;9.57;;;;;;;;;;5072493;28;20359;-65
2023/10/07 14:52:22;;;;;;;13.63;9.70;;;;;;;;;;5059822;28;20042;-65
2023/10/07 14:54:54;;;;;;;12.10;9.77;;;;;;;;;;5077552;28;20048;-65
2023/10/07 14:57:21;;;;;;;14.65;9.98;;;;;;;;;;5060788;28;20793;-65
2023/10/07 14:59:46;;;;;;;12.60;9.95;;;;;;;;;;5055959;28;20027;-65
2023/10/07 15:02:13;;;;;;;12.38;10.07;;;;;;;;;;5073666;28;20662;-65
2023/10/07 15:04:39;;;;;;;14.40;9.45;;;;;;;;;;5072656;28;20023;-65
2023/10/07 15:07:07;;;;;;;11.80;9.32;;;;;;;;;;5061393;28;20024;-65
2023/10/07 15:09:32;;;;;;;12.38;9.38;;;;;;;;;;5059677;28;20020;-65
2023/10/07 15:11:58;;;;;;;13.50;9.27;;;;;;;;;;5073193;28;20138;-64
2023/10/07 15:14:23;;;;;;;11.32;8.55;;;;;;;;;;5079594;28;20122;-65
2023/10/07 15:16:51;;;;;;;11.75;9.15;;;;;;;;;;5077243;28;20498;-65